createdAt,value
2018-11-02T00:00:01.075Z,5.20
2018-11-02T00:01:01.021Z,5.10
2018-11-02T00:02:01.018Z,5.20
2018-11-02T00:03:01.042Z,5.30
2018-11-02T00:04:01.010Z,5.30
2018-11-02T00:05:01.007Z,5.70
2018-11-02T00:06:01.020Z,5.40
2018-11-02T00:07:01.006Z,4.30
2018-11-02T00:08:01.022Z,6.10
2018-11-02T00:09:00.989Z,5.50
2018-11-02T00:10:00.986Z,5.70
2018-11-02T00:11:00.990Z,5.80
2018-11-02T00:12:00.983Z,5.90
2018-11-02T00:13:01.001Z,5.20
2018-11-02T00:14:00.969Z,5.00
2018-11-02T00:15:00.971Z,5.60
2018-11-02T00:16:00.968Z,4.30
2018-11-02T00:17:00.961Z,5.30
2018-11-02T00:18:00.988Z,5.50
2018-11-02T00:19:00.951Z,5.50
2018-11-02T00:20:00.949Z,5.70
2018-11-02T00:21:00.946Z,5.30
2018-11-02T00:22:00.943Z,5.60
2018-11-02T00:23:00.963Z,5.60
2018-11-02T00:24:00.936Z,5.60
2018-11-02T00:25:00.923Z,5.10
2018-11-02T00:26:00.924Z,5.20
2018-11-02T00:27:00.921Z,5.20
2018-11-02T00:28:00.941Z,5.10
2018-11-02T00:29:00.913Z,5.10
2018-11-02T00:30:00.908Z,5.00
2018-11-02T00:31:00.900Z,4.90
2018-11-02T00:32:00.988Z,4.40
2018-11-02T00:33:00.919Z,4.70
2018-11-02T00:34:00.893Z,5.30
2018-11-02T00:35:00.887Z,5.30
2018-11-02T00:36:00.884Z,5.50
2018-11-02T00:37:00.882Z,5.30
2018-11-02T00:38:00.903Z,5.90
2018-11-02T00:39:00.875Z,5.80
2018-11-02T00:40:00.867Z,6.50
2018-11-02T00:41:00.885Z,7.40
2018-11-02T00:42:00.870Z,7.30
2018-11-02T00:43:00.881Z,7.00
2018-11-02T00:44:00.878Z,6.70
2018-11-02T00:45:00.841Z,6.60
2018-11-02T00:46:00.860Z,6.40
2018-11-02T00:47:00.837Z,6.10
2018-11-02T00:48:00.860Z,6.00
2018-11-02T00:49:00.855Z,6.30
2018-11-02T00:50:00.820Z,5.70
2018-11-02T00:51:00.842Z,5.60
2018-11-02T00:52:00.816Z,5.90
2018-11-02T00:53:00.841Z,5.80
2018-11-02T00:54:00.808Z,5.80
2018-11-02T00:55:00.819Z,6.00
2018-11-02T00:56:00.801Z,5.90
2018-11-02T00:57:00.795Z,6.50
2018-11-02T00:58:00.817Z,6.40
2018-11-02T00:59:00.784Z,6.40
2018-11-02T01:00:00.776Z,6.70
2018-11-02T01:01:00.776Z,6.90
2018-11-02T01:02:00.770Z,6.60
2018-11-02T01:03:00.796Z,6.90
2018-11-02T01:04:00.763Z,6.40
2018-11-02T01:05:00.762Z,6.80
2018-11-02T01:06:00.748Z,7.10
2018-11-02T01:07:00.747Z,7.10
2018-11-02T01:08:00.771Z,6.90
2018-11-02T01:09:00.767Z,6.60
2018-11-02T01:10:00.732Z,5.80
2018-11-02T01:11:00.725Z,5.90
2018-11-02T01:12:00.759Z,5.50
2018-11-02T01:13:00.748Z,5.40
2018-11-02T01:14:00.718Z,5.30
2018-11-02T01:15:00.711Z,4.90
2018-11-02T01:16:00.704Z,4.90
2018-11-02T01:17:00.696Z,4.70
2018-11-02T01:18:00.724Z,4.30
2018-11-02T01:19:00.694Z,3.90
2018-11-02T01:20:00.689Z,4.00
2018-11-02T01:21:00.684Z,3.30
2018-11-02T01:22:00.679Z,3.60
2018-11-02T01:23:00.701Z,3.60
2018-11-02T01:24:00.667Z,3.10
2018-11-02T01:25:00.664Z,3.10
2018-11-02T01:26:00.690Z,3.30
2018-11-02T01:27:00.657Z,2.70
2018-11-02T01:28:00.677Z,2.90
2018-11-02T01:29:00.648Z,3.10
2018-11-02T01:30:00.641Z,3.20
2018-11-02T01:31:00.636Z,2.80
2018-11-02T01:32:00.629Z,2.80
2018-11-02T01:33:00.664Z,2.70
2018-11-02T01:34:00.624Z,2.90
2018-11-02T01:35:00.620Z,2.60
2018-11-02T01:36:00.616Z,2.50
2018-11-02T01:37:00.616Z,2.90
2018-11-02T01:38:00.639Z,3.00
2018-11-02T01:39:00.601Z,3.10
2018-11-02T01:40:00.601Z,2.60
2018-11-02T01:41:00.601Z,2.60
2018-11-02T01:42:00.692Z,2.40
2018-11-02T01:43:00.622Z,2.70
2018-11-02T01:44:00.586Z,3.20
2018-11-02T01:45:00.581Z,2.30
2018-11-02T01:46:00.574Z,2.50
2018-11-02T01:47:00.575Z,2.10
2018-11-02T01:48:00.602Z,3.10
2018-11-02T01:49:00.566Z,2.70
2018-11-02T01:50:00.563Z,2.90
2018-11-02T01:51:00.558Z,2.70
2018-11-02T01:52:00.552Z,2.40
2018-11-02T01:53:00.578Z,2.30
2018-11-02T01:54:00.549Z,2.80
2018-11-02T01:55:00.549Z,2.40
2018-11-02T01:56:00.541Z,2.40
2018-11-02T01:57:00.534Z,2.50
2018-11-02T01:58:00.565Z,2.10
2018-11-02T01:59:00.529Z,2.30
2018-11-02T02:00:00.525Z,2.50
2018-11-02T02:01:00.517Z,2.40
2018-11-02T02:02:00.526Z,2.60
2018-11-02T02:03:00.546Z,2.40
2018-11-02T02:04:00.505Z,2.50
2018-11-02T02:05:00.505Z,2.40
2018-11-02T02:06:00.501Z,2.70
2018-11-02T02:07:00.525Z,2.60
2018-11-02T02:08:00.497Z,2.90
2018-11-02T02:09:00.494Z,1.90
2018-11-02T02:10:00.485Z,2.40
2018-11-02T02:11:00.489Z,2.30
2018-11-02T02:12:00.505Z,2.40
2018-11-02T02:13:00.508Z,2.10
2018-11-02T02:14:00.472Z,2.50
2018-11-02T02:15:00.473Z,2.10
2018-11-02T02:16:00.465Z,1.70
2018-11-02T02:17:00.495Z,2.10
2018-11-02T02:18:00.457Z,2.20
2018-11-02T02:19:00.468Z,2.40
2018-11-02T02:20:00.453Z,1.80
2018-11-02T02:21:00.450Z,1.90
2018-11-02T02:22:00.517Z,1.90
2018-11-02T02:23:00.443Z,1.90
2018-11-02T02:24:00.438Z,2.00
2018-11-02T02:25:00.435Z,1.80
2018-11-02T02:26:00.431Z,2.20
2018-11-02T02:27:00.459Z,1.90
2018-11-02T02:28:00.422Z,1.90
2018-11-02T02:29:00.418Z,2.10
2018-11-02T02:30:00.420Z,1.50
2018-11-02T02:31:00.413Z,1.90
2018-11-02T02:32:00.438Z,1.90
2018-11-02T02:33:00.405Z,2.00
2018-11-02T02:34:00.402Z,1.80
2018-11-02T02:35:00.393Z,2.10
2018-11-02T02:36:00.393Z,2.30
2018-11-02T02:37:00.420Z,2.00
2018-11-02T02:38:00.386Z,2.40
2018-11-02T02:39:00.388Z,2.00
2018-11-02T02:40:00.382Z,2.10
2018-11-02T02:41:00.377Z,2.10
2018-11-02T02:42:00.404Z,2.40
2018-11-02T02:43:00.367Z,2.00
2018-11-02T02:44:00.369Z,2.00
2018-11-02T02:45:00.362Z,2.10
2018-11-02T02:46:00.357Z,2.20
2018-11-02T02:47:00.384Z,2.10
2018-11-02T02:48:00.354Z,2.10
2018-11-02T02:49:00.353Z,2.30
2018-11-02T02:50:00.347Z,2.40
2018-11-02T02:51:00.338Z,1.90
2018-11-02T02:52:00.374Z,2.30
2018-11-02T02:53:00.329Z,2.30
2018-11-02T02:54:00.333Z,2.10
2018-11-02T02:55:00.325Z,2.20
2018-11-02T02:56:00.322Z,2.20
2018-11-02T02:57:00.349Z,2.40
2018-11-02T02:58:00.313Z,2.20
2018-11-02T02:59:00.346Z,2.20
2018-11-02T03:00:00.319Z,2.10
2018-11-02T03:01:00.310Z,1.90
2018-11-02T03:02:00.358Z,2.30
2018-11-02T03:03:00.298Z,2.20
2018-11-02T03:04:00.293Z,2.20
2018-11-02T03:05:00.290Z,2.10
2018-11-02T03:06:00.281Z,2.50
2018-11-02T03:07:00.310Z,2.20
2018-11-02T03:08:00.285Z,2.30
2018-11-02T03:09:00.308Z,2.30
2018-11-02T03:10:00.269Z,2.20
2018-11-02T03:11:00.540Z,2.30
2018-11-02T03:12:00.268Z,2.30
2018-11-02T03:13:00.283Z,2.20
2018-11-02T03:14:00.253Z,2.40
2018-11-02T03:15:00.279Z,2.30
2018-11-02T03:16:00.250Z,2.40
2018-11-02T03:17:00.272Z,2.60
2018-11-02T03:18:00.242Z,2.10
2018-11-02T03:19:00.238Z,2.10
2018-11-02T03:20:00.230Z,2.30
2018-11-02T03:21:00.250Z,2.30
2018-11-02T03:22:00.227Z,2.30
2018-11-02T03:23:00.226Z,2.30
2018-11-02T03:24:00.217Z,2.30
2018-11-02T03:25:00.217Z,2.20
2018-11-02T03:26:00.240Z,2.10
2018-11-02T03:27:00.214Z,2.00
2018-11-02T03:28:00.202Z,2.20
2018-11-02T03:29:00.198Z,2.30
2018-11-02T03:30:00.240Z,2.10
2018-11-02T03:31:00.187Z,2.30
2018-11-02T03:32:00.217Z,2.00
2018-11-02T03:33:00.183Z,2.30
2018-11-02T03:34:00.176Z,2.10
2018-11-02T03:35:00.175Z,2.20
2018-11-02T03:36:00.171Z,2.30
2018-11-02T03:37:00.196Z,2.30
2018-11-02T03:38:00.162Z,2.30
2018-11-02T03:39:00.158Z,2.10
2018-11-02T03:40:00.153Z,2.10
2018-11-02T03:41:00.174Z,2.30
2018-11-02T03:42:00.145Z,2.30
2018-11-02T03:43:00.142Z,2.20
2018-11-02T03:44:00.145Z,2.10
2018-11-02T03:45:00.135Z,2.40
2018-11-02T03:46:00.168Z,2.50
2018-11-02T03:47:00.130Z,2.30
2018-11-02T03:48:00.123Z,2.20
2018-11-02T03:49:00.125Z,2.30
2018-11-02T03:50:00.151Z,2.40
2018-11-02T03:51:00.113Z,2.40
2018-11-02T03:52:00.116Z,2.30
2018-11-02T03:53:00.107Z,2.10
2018-11-02T03:54:00.102Z,2.40
2018-11-02T03:55:00.128Z,2.40
2018-11-02T03:56:00.095Z,2.20
2018-11-02T03:57:00.107Z,2.30
2018-11-02T03:58:00.087Z,2.30
2018-11-02T03:59:00.080Z,2.20
2018-11-02T04:00:00.109Z,2.50
2018-11-02T04:01:00.079Z,2.30
2018-11-02T04:02:00.112Z,2.30
2018-11-02T04:03:00.068Z,2.50
2018-11-02T04:04:00.062Z,2.30
2018-11-02T04:05:00.086Z,2.60
2018-11-02T04:06:00.057Z,2.50
2018-11-02T04:07:00.051Z,2.40
2018-11-02T04:08:00.041Z,2.50
2018-11-02T04:09:00.043Z,2.40
2018-11-02T04:10:00.067Z,2.50
2018-11-02T04:11:00.039Z,2.20
2018-11-02T04:12:00.035Z,2.80
2018-11-02T04:13:00.026Z,2.60
2018-11-02T04:14:00.024Z,2.50
2018-11-02T04:15:00.046Z,2.50
2018-11-02T04:16:00.019Z,2.50
2018-11-02T04:17:00.010Z,2.40
2018-11-02T04:18:00.007Z,2.70
2018-11-02T04:19:00.032Z,2.50
2018-11-02T04:20:00.026Z,2.70
2018-11-02T04:20:59.995Z,2.80
2018-11-02T04:21:59.991Z,2.80
2018-11-02T04:22:59.992Z,2.20
2018-11-02T04:23:59.985Z,2.70
2018-11-02T04:25:00.004Z,2.60
2018-11-02T04:25:59.976Z,2.90
2018-11-02T04:26:59.973Z,3.20
2018-11-02T04:27:59.963Z,4.80
2018-11-02T04:28:59.966Z,5.80
2018-11-02T04:29:59.987Z,5.40
2018-11-02T04:31:00.009Z,3.20
2018-11-02T04:31:59.954Z,3.40
2018-11-02T04:32:59.947Z,2.60
2018-11-02T04:33:59.948Z,3.00
2018-11-02T04:34:59.970Z,2.80
2018-11-02T04:35:59.934Z,3.00
2018-11-02T04:36:59.926Z,3.00
2018-11-02T04:37:59.923Z,3.20
2018-11-02T04:38:59.919Z,3.40
2018-11-02T04:39:59.946Z,3.10
2018-11-02T04:40:59.918Z,3.40
2018-11-02T04:41:59.911Z,3.30
2018-11-02T04:42:59.903Z,3.20
2018-11-02T04:43:59.899Z,3.20
2018-11-02T04:44:59.921Z,3.90
2018-11-02T04:45:59.894Z,3.80
2018-11-02T04:46:59.886Z,3.90
2018-11-02T04:47:59.884Z,3.30
2018-11-02T04:48:59.880Z,2.90
2018-11-02T04:49:59.879Z,3.20
2018-11-02T04:50:59.958Z,3.60
2018-11-02T04:51:59.918Z,3.40
2018-11-02T04:52:59.865Z,3.60
2018-11-02T04:53:59.859Z,3.70
2018-11-02T04:54:59.856Z,3.50
2018-11-02T04:55:59.875Z,3.60
2018-11-02T04:56:59.847Z,3.30
2018-11-02T04:57:59.847Z,3.50
2018-11-02T04:58:59.839Z,3.40
2018-11-02T04:59:59.871Z,3.60
2018-11-02T05:00:59.833Z,4.10
2018-11-02T05:01:59.852Z,4.20
2018-11-02T05:02:59.825Z,4.40
2018-11-02T05:03:59.816Z,3.90
2018-11-02T05:04:59.827Z,4.70
2018-11-02T05:05:59.841Z,4.30
2018-11-02T05:06:59.803Z,5.00
2018-11-02T05:07:59.801Z,5.00
2018-11-02T05:08:59.800Z,5.10
2018-11-02T05:09:59.963Z,4.60
2018-11-02T05:10:59.815Z,4.30
2018-11-02T05:11:59.784Z,4.30
2018-11-02T05:12:59.780Z,4.30
2018-11-02T05:13:59.775Z,4.60
2018-11-02T05:14:59.800Z,4.10
2018-11-02T05:15:59.767Z,4.40
2018-11-02T05:16:59.763Z,4.50
2018-11-02T05:17:59.760Z,4.50
2018-11-02T05:18:59.753Z,6.00
2018-11-02T05:19:59.781Z,5.50
2018-11-02T05:20:59.761Z,5.80
2018-11-02T05:21:59.745Z,4.80
2018-11-02T05:22:59.740Z,5.70
2018-11-02T05:23:59.737Z,5.60
2018-11-02T05:24:59.756Z,4.20
2018-11-02T05:25:59.722Z,4.50
2018-11-02T05:26:59.718Z,4.90
2018-11-02T05:27:59.716Z,4.70
2018-11-02T05:28:59.748Z,4.30
2018-11-02T05:29:59.736Z,4.70
2018-11-02T05:30:59.711Z,4.30
2018-11-02T05:31:59.699Z,5.30
2018-11-02T05:32:59.697Z,5.00
2018-11-02T05:33:59.691Z,4.80
2018-11-02T05:34:59.724Z,4.40
2018-11-02T05:35:59.681Z,5.00
2018-11-02T05:36:59.679Z,4.80
2018-11-02T05:37:59.676Z,6.10
2018-11-02T05:38:59.676Z,5.60
2018-11-02T05:39:59.696Z,7.40
2018-11-02T05:40:59.663Z,9.40
2018-11-02T05:41:59.697Z,5.00
2018-11-02T05:42:59.657Z,4.40
2018-11-02T05:43:59.647Z,5.90
2018-11-02T05:44:59.672Z,5.60
2018-11-02T05:45:59.641Z,4.10
2018-11-02T05:46:59.667Z,4.60
2018-11-02T05:47:59.645Z,4.70
2018-11-02T05:48:59.630Z,4.20
2018-11-02T05:49:59.652Z,4.10
2018-11-02T05:50:59.622Z,4.40
2018-11-02T05:51:59.616Z,4.80
2018-11-02T05:52:59.613Z,4.10
2018-11-02T05:53:59.648Z,3.50
2018-11-02T05:54:59.627Z,5.00
2018-11-02T05:55:59.602Z,5.50
2018-11-02T05:56:59.596Z,4.70
2018-11-02T05:57:59.592Z,4.70
2018-11-02T05:58:59.583Z,5.30
2018-11-02T05:59:59.612Z,5.10
2018-11-02T06:00:59.583Z,4.90
2018-11-02T06:01:59.576Z,5.10
2018-11-02T06:02:59.571Z,5.20
2018-11-02T06:03:59.588Z,5.30
2018-11-02T06:04:59.593Z,5.80
2018-11-02T06:05:59.560Z,11.50
2018-11-02T06:06:59.555Z,13.90
2018-11-02T06:07:59.577Z,16.50
2018-11-02T06:08:59.604Z,16.30
2018-11-02T06:09:59.569Z,11.60
2018-11-02T06:10:59.536Z,12.70
2018-11-02T06:11:59.528Z,12.90
2018-11-02T06:12:59.532Z,11.80
2018-11-02T06:13:59.524Z,9.80
2018-11-02T06:14:59.547Z,7.70
2018-11-02T06:15:59.525Z,13.20
2018-11-02T06:16:59.657Z,8.80
2018-11-02T06:17:59.517Z,6.60
2018-11-02T06:18:59.508Z,8.10
2018-11-02T06:19:59.535Z,11.60
2018-11-02T06:20:59.495Z,10.30
2018-11-02T06:21:59.499Z,7.60
2018-11-02T06:22:59.491Z,7.10
2018-11-02T06:23:59.502Z,11.40
2018-11-02T06:24:59.508Z,25.30
2018-11-02T06:25:59.476Z,23.90
2018-11-02T06:26:59.473Z,18.20
2018-11-02T06:27:59.477Z,17.60
2018-11-02T06:29:01.609Z,8.80
2018-11-02T06:29:59.488Z,15.00
2018-11-02T06:30:59.456Z,11.00
2018-11-02T06:31:59.447Z,11.50
2018-11-02T06:32:59.552Z,11.00
2018-11-02T06:33:59.462Z,8.30
2018-11-02T06:34:59.445Z,6.10
2018-11-02T06:35:59.436Z,5.80
2018-11-02T06:36:59.437Z,5.30
2018-11-02T06:37:59.428Z,5.00
2018-11-02T06:38:59.627Z,5.50
2018-11-02T06:39:59.416Z,5.50
2018-11-02T06:40:59.413Z,5.50
2018-11-02T06:41:59.436Z,4.70
2018-11-02T06:42:59.404Z,5.70
2018-11-02T06:43:59.402Z,4.80
2018-11-02T06:44:59.517Z,4.90
2018-11-02T06:45:59.388Z,4.90
2018-11-02T06:46:59.392Z,4.40
2018-11-02T06:47:59.380Z,3.80
2018-11-02T06:48:59.380Z,4.40
2018-11-02T06:49:59.404Z,5.10
2018-11-02T06:50:59.398Z,4.40
2018-11-02T06:51:59.370Z,7.80
2018-11-02T06:52:59.364Z,4.70
2018-11-02T06:53:59.391Z,8.50
2018-11-02T06:54:59.362Z,8.40
2018-11-02T06:55:59.356Z,9.90
2018-11-02T06:56:59.355Z,11.50
2018-11-02T06:57:59.348Z,11.80
2018-11-02T06:58:59.432Z,7.10
2018-11-02T06:59:59.564Z,8.80
2018-11-02T07:00:59.336Z,6.30
2018-11-02T07:01:59.340Z,6.60
2018-11-02T07:02:59.328Z,5.20
2018-11-02T07:03:59.355Z,4.60
2018-11-02T07:04:59.323Z,4.90
2018-11-02T07:05:59.313Z,4.60
2018-11-02T07:06:59.377Z,5.10
2018-11-02T07:07:59.386Z,4.60
2018-11-02T07:08:59.339Z,5.40
2018-11-02T07:09:59.298Z,4.60
2018-11-02T07:10:59.299Z,4.40
2018-11-02T07:11:59.304Z,5.20
2018-11-02T07:12:59.294Z,7.60
2018-11-02T07:13:59.314Z,5.40
2018-11-02T07:14:59.282Z,5.30
2018-11-02T07:15:59.281Z,4.00
2018-11-02T07:16:59.277Z,3.90
2018-11-02T07:17:59.275Z,3.40
2018-11-02T07:18:59.300Z,3.50
2018-11-02T07:19:59.270Z,3.50
2018-11-02T07:20:59.264Z,3.10
2018-11-02T07:21:59.269Z,4.20
2018-11-02T07:22:59.272Z,3.80
2018-11-02T07:23:59.295Z,3.80
2018-11-02T07:24:59.283Z,3.70
2018-11-02T07:25:59.252Z,3.80
2018-11-02T07:26:59.245Z,4.80
2018-11-02T07:27:59.250Z,4.10
2018-11-02T07:28:59.272Z,3.10
2018-11-02T07:29:59.245Z,3.70
2018-11-02T07:30:59.245Z,4.20
2018-11-02T07:31:59.244Z,3.80
2018-11-02T07:32:59.233Z,3.30
2018-11-02T07:33:59.258Z,3.80
2018-11-02T07:34:59.240Z,3.70
2018-11-02T07:35:59.225Z,3.50
2018-11-02T07:36:59.229Z,4.00
2018-11-02T07:37:59.256Z,2.70
2018-11-02T07:38:59.224Z,3.60
2018-11-02T07:39:59.227Z,3.40
2018-11-02T07:40:59.225Z,3.50
2018-11-02T07:41:59.221Z,3.70
2018-11-02T07:42:59.254Z,3.30
2018-11-02T07:43:59.227Z,3.50
2018-11-02T07:44:59.212Z,3.90
2018-11-02T07:45:59.216Z,3.70
2018-11-02T07:46:59.218Z,2.90
2018-11-02T07:47:59.254Z,2.90
2018-11-02T07:48:59.214Z,3.60
2018-11-02T07:49:59.211Z,3.30
2018-11-02T07:50:59.214Z,3.50
2018-11-02T07:51:59.211Z,4.20
2018-11-02T07:52:59.284Z,3.50
2018-11-02T07:53:59.209Z,4.00
2018-11-02T07:54:59.216Z,3.20
2018-11-02T07:55:59.209Z,3.80
2018-11-02T07:56:59.208Z,3.00
2018-11-02T07:57:59.233Z,3.50
2018-11-02T07:58:59.213Z,3.70
2018-11-02T07:59:59.213Z,3.90
2018-11-02T08:00:59.208Z,3.30
2018-11-02T08:01:59.210Z,3.40
2018-11-02T08:02:59.233Z,3.70
2018-11-02T08:03:59.652Z,4.20
2018-11-02T08:04:59.209Z,3.80
2018-11-02T08:05:59.206Z,3.40
2018-11-02T08:06:59.207Z,3.30
2018-11-02T08:07:59.229Z,3.50
2018-11-02T08:08:59.209Z,3.80
2018-11-02T08:09:59.210Z,4.20
2018-11-02T08:10:59.213Z,3.60
2018-11-02T08:11:59.212Z,3.10
2018-11-02T08:12:59.251Z,3.20
2018-11-02T08:13:59.209Z,3.00
2018-11-02T08:14:59.213Z,3.10
2018-11-02T08:15:59.205Z,3.60
2018-11-02T08:16:59.209Z,3.10
2018-11-02T08:17:59.237Z,2.90
2018-11-02T08:18:59.225Z,3.30
2018-11-02T08:19:59.207Z,3.10
2018-11-02T08:20:59.208Z,3.70
2018-11-02T08:21:59.213Z,3.80
2018-11-02T08:22:59.245Z,3.90
2018-11-02T08:23:59.215Z,3.30
2018-11-02T08:24:59.214Z,3.20
2018-11-02T08:25:59.210Z,3.40
2018-11-02T08:26:59.214Z,3.20
2018-11-02T08:27:59.241Z,3.40
2018-11-02T08:28:59.236Z,2.70
2018-11-02T08:29:59.210Z,2.90
2018-11-02T08:30:59.209Z,3.10
2018-11-02T08:31:59.236Z,3.40
2018-11-02T08:32:59.237Z,3.20
2018-11-02T08:33:59.209Z,3.30
2018-11-02T08:34:59.210Z,3.20
2018-11-02T08:35:59.205Z,3.10
2018-11-02T08:36:59.205Z,2.90
2018-11-02T08:37:59.233Z,2.80
2018-11-02T08:38:59.206Z,2.40
2018-11-02T08:39:59.198Z,2.90
2018-11-02T08:40:59.202Z,2.10
2018-11-02T08:41:59.268Z,3.00
2018-11-02T08:42:59.228Z,3.50
2018-11-02T08:43:59.199Z,3.40
2018-11-02T08:44:59.201Z,3.60
2018-11-02T08:45:59.199Z,3.80
2018-11-02T08:46:59.193Z,4.20
2018-11-02T08:47:59.221Z,4.40
2018-11-02T08:48:59.196Z,4.40
2018-11-02T08:49:59.193Z,4.10
2018-11-02T08:50:59.193Z,4.00
2018-11-02T08:51:59.195Z,4.30
2018-11-02T08:52:59.222Z,4.00
2018-11-02T08:53:59.190Z,4.20
2018-11-02T08:54:59.190Z,3.90
2018-11-02T08:55:59.189Z,3.70
2018-11-02T08:56:59.190Z,4.00
2018-11-02T08:57:59.300Z,3.80
2018-11-02T08:58:59.221Z,4.10
2018-11-02T08:59:59.198Z,4.10
2018-11-02T09:00:59.324Z,3.70
2018-11-02T09:02:00.183Z,3.60
2018-11-02T09:03:01.120Z,3.80
2018-11-02T09:03:59.187Z,3.30
2018-11-02T09:04:59.257Z,2.90
2018-11-02T09:05:59.194Z,2.40
2018-11-02T09:06:59.190Z,2.30
2018-11-02T09:07:59.215Z,2.40
2018-11-02T09:08:59.187Z,2.40
2018-11-02T09:09:59.188Z,2.20
2018-11-02T09:10:59.193Z,2.40
2018-11-02T09:11:59.199Z,2.50
2018-11-02T09:12:59.215Z,2.50
2018-11-02T09:13:59.187Z,2.40
2018-11-02T09:14:59.195Z,2.30
2018-11-02T09:15:59.190Z,2.60
2018-11-02T09:16:59.191Z,2.60
2018-11-02T09:17:59.218Z,2.50
2018-11-02T09:18:59.274Z,2.40
2018-11-02T09:19:59.195Z,2.30
2018-11-02T09:20:59.190Z,2.30
2018-11-02T09:21:59.195Z,2.60
2018-11-02T09:22:59.227Z,2.50
2018-11-02T09:23:59.190Z,2.60
2018-11-02T09:24:59.197Z,2.60
2018-11-02T09:25:59.191Z,2.40
2018-11-02T09:26:59.256Z,2.40
2018-11-02T09:27:59.419Z,2.30
2018-11-02T09:28:59.308Z,2.40
2018-11-02T09:29:59.187Z,2.50
2018-11-02T09:30:59.196Z,2.50
2018-11-02T09:31:59.197Z,2.30
2018-11-02T09:32:59.224Z,2.40
2018-11-02T09:33:59.195Z,2.50
2018-11-02T09:34:59.191Z,2.20
2018-11-02T09:35:59.195Z,2.30
2018-11-02T09:36:59.195Z,2.40
2018-11-02T09:37:59.223Z,2.30
2018-11-02T09:38:59.203Z,2.20
2018-11-02T09:39:59.196Z,2.40
2018-11-02T09:40:59.196Z,2.30
2018-11-02T09:41:59.194Z,2.30
2018-11-02T09:42:59.220Z,2.60
2018-11-02T09:43:59.203Z,2.20
2018-11-02T09:44:59.205Z,2.20
2018-11-02T09:45:59.198Z,2.10
2018-11-02T09:46:59.210Z,1.90
2018-11-02T09:47:59.234Z,1.80
2018-11-02T09:48:59.204Z,2.40
2018-11-02T09:49:59.199Z,2.30
2018-11-02T09:50:59.201Z,2.00
2018-11-02T09:51:59.307Z,2.00
2018-11-02T09:52:59.203Z,1.80
2018-11-02T09:53:59.198Z,1.80
2018-11-02T09:54:59.200Z,2.00
2018-11-02T09:55:59.199Z,1.70
2018-11-02T09:56:59.228Z,2.00
2018-11-02T09:57:59.199Z,2.30
2018-11-02T09:58:59.219Z,2.20
2018-11-02T09:59:59.274Z,2.30
2018-11-02T10:00:59.316Z,2.70
2018-11-02T10:01:59.267Z,2.30
2018-11-02T10:02:59.224Z,2.50
2018-11-02T10:03:59.192Z,2.00
2018-11-02T10:04:59.190Z,2.30
2018-11-02T10:05:59.196Z,2.40
2018-11-02T10:06:59.230Z,2.40
2018-11-02T10:07:59.897Z,2.70
2018-11-02T10:08:59.248Z,2.70
2018-11-02T10:09:59.216Z,2.40
2018-11-02T10:10:59.192Z,2.70
2018-11-02T10:11:59.220Z,2.40
2018-11-02T10:12:59.192Z,2.70
2018-11-02T10:13:59.188Z,3.30
2018-11-02T10:14:59.221Z,2.80
2018-11-02T10:15:59.198Z,2.90
2018-11-02T10:16:59.184Z,2.00
2018-11-02T10:17:59.224Z,2.10
2018-11-02T10:18:59.189Z,2.10
2018-11-02T10:19:59.184Z,2.10
2018-11-02T10:20:59.185Z,2.10
2018-11-02T10:21:59.183Z,1.90
2018-11-02T10:22:59.313Z,1.80
2018-11-02T10:23:59.275Z,2.00
2018-11-02T10:24:59.807Z,1.80
2018-11-02T10:25:59.173Z,1.80
2018-11-02T10:26:59.181Z,1.70
2018-11-02T10:27:59.410Z,1.90
2018-11-02T10:28:59.188Z,1.60
2018-11-02T10:29:59.187Z,1.70
2018-11-02T10:30:59.180Z,1.60
2018-11-02T10:31:59.212Z,1.60
2018-11-02T10:32:59.188Z,1.60
2018-11-02T10:34:00.127Z,1.70
2018-11-02T10:34:59.181Z,1.70
2018-11-02T10:35:59.225Z,1.90
2018-11-02T10:36:59.213Z,1.50
2018-11-02T10:37:59.187Z,1.60
2018-11-02T10:38:59.194Z,1.70
2018-11-02T10:40:04.375Z,1.60
2018-11-02T10:41:03.128Z,1.80
2018-11-02T10:42:00.801Z,1.60
2018-11-02T10:42:59.185Z,1.70
2018-11-02T10:43:59.183Z,1.80
2018-11-02T10:44:59.216Z,1.50
2018-11-02T10:45:59.190Z,1.60
2018-11-02T10:46:59.220Z,1.60
2018-11-02T10:47:59.183Z,1.70
2018-11-02T10:48:59.185Z,1.50
2018-11-02T10:49:59.186Z,1.70
2018-11-02T10:50:59.189Z,1.70
2018-11-02T10:51:59.211Z,1.60
2018-11-02T10:52:59.182Z,1.50
2018-11-02T10:53:59.185Z,1.50
2018-11-02T10:54:59.192Z,1.80
2018-11-02T10:56:01.797Z,1.40
2018-11-02T10:57:01.807Z,1.50
2018-11-02T10:58:02.145Z,1.60
2018-11-02T10:58:59.206Z,1.60
2018-11-02T10:59:59.199Z,1.40
2018-11-02T11:00:59.316Z,1.50
2018-11-02T11:01:59.208Z,1.60
2018-11-02T11:02:59.241Z,1.60
2018-11-02T11:03:59.216Z,1.40
2018-11-02T11:04:59.217Z,1.70
2018-11-02T11:05:59.222Z,1.60
2018-11-02T11:06:59.249Z,1.50
2018-11-02T11:07:59.229Z,1.50
2018-11-02T11:08:59.233Z,1.40
2018-11-02T11:09:59.238Z,1.50
2018-11-02T11:10:59.244Z,1.40
2018-11-02T11:11:59.372Z,1.40
2018-11-02T11:12:59.537Z,1.60
2018-11-02T11:13:59.260Z,1.70
2018-11-02T11:14:59.268Z,1.50
2018-11-02T11:15:59.301Z,1.50
2018-11-02T11:16:59.282Z,1.40
2018-11-02T11:17:59.315Z,1.60
2018-11-02T11:18:59.295Z,1.50
2018-11-02T11:19:59.304Z,1.60
2018-11-02T11:20:59.336Z,1.50
2018-11-02T11:21:59.351Z,1.60
2018-11-02T11:22:59.334Z,1.80
2018-11-02T11:23:59.344Z,1.50
2018-11-02T11:24:59.350Z,1.60
2018-11-02T11:25:59.366Z,1.70
2018-11-02T11:26:59.400Z,1.60
2018-11-02T11:27:59.382Z,1.50
2018-11-02T11:28:59.437Z,1.60
2018-11-02T11:29:59.408Z,1.60
2018-11-02T11:30:59.420Z,1.50
2018-11-02T11:31:59.461Z,1.60
2018-11-02T11:32:59.439Z,1.60
2018-11-02T11:33:59.449Z,1.50
2018-11-02T11:34:59.473Z,1.80
2018-11-02T11:35:59.509Z,1.40
2018-11-02T11:36:59.492Z,1.80
2018-11-02T11:37:59.564Z,1.70
2018-11-02T11:38:59.515Z,1.40
2018-11-02T11:39:59.533Z,1.40
2018-11-02T11:40:59.544Z,1.60
2018-11-02T11:41:59.584Z,1.50
2018-11-02T11:42:59.567Z,1.40
2018-11-02T11:43:59.587Z,1.40
2018-11-02T11:44:59.596Z,1.40
2018-11-02T11:45:59.608Z,1.50
2018-11-02T11:46:59.649Z,1.40
2018-11-02T11:47:59.637Z,1.50
2018-11-02T11:48:59.789Z,1.40
2018-11-02T11:49:59.660Z,1.50
2018-11-02T11:50:59.677Z,1.80
2018-11-02T11:51:59.717Z,1.60
2018-11-02T11:52:59.707Z,1.60
2018-11-02T11:53:59.717Z,1.60
2018-11-02T11:54:59.733Z,1.40
2018-11-02T11:55:59.744Z,1.40
2018-11-02T11:56:59.781Z,1.40
2018-11-02T11:57:59.767Z,1.30
2018-11-02T11:58:59.784Z,1.50
2018-11-02T11:59:59.794Z,1.40
2018-11-02T12:00:59.801Z,1.50
2018-11-02T12:01:59.849Z,1.30
2018-11-02T12:02:59.835Z,1.40
2018-11-02T12:03:59.847Z,1.60
2018-11-02T12:04:59.934Z,1.50
2018-11-02T12:05:59.872Z,1.40
2018-11-02T12:06:59.922Z,1.30
2018-11-02T12:07:59.897Z,1.50
2018-11-02T12:08:59.914Z,1.30
2018-11-02T12:09:59.933Z,1.70
2018-11-02T12:10:59.941Z,1.40
2018-11-02T12:11:59.989Z,1.50
2018-11-02T12:12:59.971Z,1.40
2018-11-02T12:13:59.978Z,1.20
2018-11-02T12:14:59.996Z,1.50
2018-11-02T12:16:00.111Z,1.20
2018-11-02T12:17:00.050Z,1.40
2018-11-02T12:18:00.062Z,1.50
2018-11-02T12:19:00.074Z,1.30
2018-11-02T12:20:00.063Z,1.50
2018-11-02T12:21:00.080Z,1.40
2018-11-02T12:22:00.136Z,1.40
2018-11-02T12:23:00.137Z,1.50
2018-11-02T12:24:00.118Z,1.30
2018-11-02T12:25:00.131Z,1.30
2018-11-02T12:26:00.143Z,1.40
2018-11-02T12:27:00.192Z,1.50
2018-11-02T12:28:00.225Z,1.60
2018-11-02T12:29:00.184Z,1.40
2018-11-02T12:30:00.198Z,1.40
2018-11-02T12:31:00.227Z,1.50
2018-11-02T12:32:00.270Z,1.40
2018-11-02T12:33:00.243Z,1.40
2018-11-02T12:34:00.283Z,1.40
2018-11-02T12:35:00.267Z,1.40
2018-11-02T12:36:00.282Z,1.30
2018-11-02T12:37:00.354Z,1.50
2018-11-02T12:38:00.311Z,1.20
2018-11-02T12:39:00.352Z,1.20
2018-11-02T12:40:00.338Z,1.30
2018-11-02T12:41:00.354Z,1.40
2018-11-02T12:42:00.370Z,1.30
2018-11-02T12:43:00.379Z,1.30
2018-11-02T12:44:00.547Z,1.40
2018-11-02T12:45:00.407Z,1.40
2018-11-02T12:46:00.419Z,1.30
2018-11-02T12:47:00.432Z,1.30
2018-11-02T12:48:00.515Z,1.30
2018-11-02T12:49:00.727Z,1.50
2018-11-02T12:50:00.526Z,1.50
2018-11-02T12:51:00.492Z,1.30
2018-11-02T12:52:00.504Z,1.50
2018-11-02T12:53:00.520Z,1.60
2018-11-02T12:54:00.565Z,1.50
2018-11-02T12:55:00.550Z,1.40
2018-11-02T12:56:00.565Z,1.50
2018-11-02T12:57:00.577Z,1.40
2018-11-02T12:58:00.599Z,1.80
2018-11-02T12:59:00.636Z,1.50
2018-11-02T13:00:00.622Z,1.70
2018-11-02T13:01:00.632Z,1.60
2018-11-02T13:02:00.652Z,1.60
2018-11-02T13:03:00.669Z,1.60
2018-11-02T13:04:00.701Z,1.50
2018-11-02T13:05:00.718Z,1.70
2018-11-02T13:06:00.705Z,1.70
2018-11-02T13:07:00.718Z,1.60
2018-11-02T13:08:00.730Z,1.40
2018-11-02T13:09:00.881Z,1.60
2018-11-02T13:10:00.756Z,1.90
2018-11-02T13:11:00.766Z,1.50
2018-11-02T13:12:00.777Z,2.30
2018-11-02T13:13:00.785Z,1.70
2018-11-02T13:14:00.840Z,1.60
2018-11-02T13:15:00.814Z,1.50
2018-11-02T13:16:00.900Z,1.40
2018-11-02T13:17:00.855Z,1.30